aviador You're here:

VTPO Decoded Metar

SUKHOTHAI in THAILAND
Report Time2017-05-30 11:00:00
UTC Time2017-05-30 11:13:18
Flight Rules vfr VFR
Wind140° at 08 kt
W.Decomp.*RWY 18: 6.0 kt HW 5.2 kt LCW
W.Rank140° ranks 5
Current wind is above 140° avg. (4.4)
Visibility9999 m
Phenomena:N/A
Clouds:Few CB 018 Hf
Scattered 022 Hf
Expected CloudBase > 2,800 ft AGL from Temp-Dew spread
CeilingNone
Temp32°C (ISA +17)
Dew Point25°C (67% RH)
Heat Index39.3°C
QNH1004 hPa
Density Alt2,877 ft
Elevation177 ft
Report Wrong Elevation
Raw Report
VTPO 301100Z 14008KT 9999 FEW018CB SCT022 32/25 Q1004=

Extra information for VTPO:More info

Metar Taf Metar & Taf Last 4 Metars F.Rules Stats Wind Profile Meteogram Temp Stats Airport Information Weather charts Add Link Nearby VenuesMetar ALERT Operation Metar Decoded Social comments